sensor_id;sensor_type;location;lat;lon;timestamp;pressure;altitude;pressure_sealevel;temperature;humidity
2549;BME280;1284;53.520;10.248;2024-02-28T00:01:52;101241.03;;;7.42;79.28
2549;BME280;1284;53.520;10.248;2024-02-28T00:04:18;101245.44;;;7.55;78.68
2549;BME280;1284;53.520;10.248;2024-02-28T00:06:44;101237.06;;;7.48;78.87
2549;BME280;1284;53.520;10.248;2024-02-28T00:09:12;101245.25;;;7.60;77.76
2549;BME280;1284;53.520;10.248;2024-02-28T00:11:46;101253.94;;;7.48;77.53
2549;BME280;1284;53.520;10.248;2024-02-28T00:14:12;101249.38;;;7.40;78.72
2549;BME280;1284;53.520;10.248;2024-02-28T00:16:41;101250.03;;;7.28;79.09
2549;BME280;1284;53.520;10.248;2024-02-28T00:19:07;101245.16;;;7.22;79.09
2549;BME280;1284;53.520;10.248;2024-02-28T00:21:33;101244.38;;;7.13;78.64
2549;BME280;1284;53.520;10.248;2024-02-28T00:23:58;101245.78;;;7.10;78.51
2549;BME280;1284;53.520;10.248;2024-02-28T00:26:24;101242.03;;;7.11;78.24
2549;BME280;1284;53.520;10.248;2024-02-28T00:28:49;101247.09;;;7.04;79.24
2549;BME280;1284;53.520;10.248;2024-02-28T00:31:15;101237.94;;;6.88;79.44
2549;BME280;1284;53.520;10.248;2024-02-28T00:33:40;101234.31;;;7.01;78.97
2549;BME280;1284;53.520;10.248;2024-02-28T00:36:06;101241.72;;;6.96;78.58
2549;BME280;1284;53.520;10.248;2024-02-28T00:38:31;101243.91;;;6.94;79.02
2549;BME280;1284;53.520;10.248;2024-02-28T00:40:57;101236.19;;;7.09;78.46
2549;BME280;1284;53.520;10.248;2024-02-28T00:43:22;101237.13;;;7.13;77.17
2549;BME280;1284;53.520;10.248;2024-02-28T00:45:48;101236.53;;;7.08;77.53
2549;BME280;1284;53.520;10.248;2024-02-28T00:48:14;101238.22;;;7.12;77.26
2549;BME280;1284;53.520;10.248;2024-02-28T00:50:39;101238.22;;;7.12;76.19
2549;BME280;1284;53.520;10.248;2024-02-28T00:53:05;101229.75;;;7.02;76.96
2549;BME280;1284;53.520;10.248;2024-02-28T00:55:30;101225.81;;;6.99;77.50
2549;BME280;1284;53.520;10.248;2024-02-28T00:57:55;101210.97;;;7.10;76.77
2549;BME280;1284;53.520;10.248;2024-02-28T01:00:21;101221.53;;;7.15;76.52
2549;BME280;1284;53.520;10.248;2024-02-28T01:02:46;101219.94;;;7.14;76.58
2549;BME280;1284;53.520;10.248;2024-02-28T01:05:12;101219.94;;;7.14;76.98
2549;BME280;1284;53.520;10.248;2024-02-28T01:07:37;101220.13;;;7.01;77.09
2549;BME280;1284;53.520;10.248;2024-02-28T01:10:03;101228.34;;;7.04;77.01
2549;BME280;1284;53.520;10.248;2024-02-28T01:12:29;101229.44;;;7.03;77.11
2549;BME280;1284;53.520;10.248;2024-02-28T01:14:54;101221.06;;;7.13;76.15
2549;BME280;1284;53.520;10.248;2024-02-28T01:17:23;101215.88;;;7.00;75.73
2549;BME280;1284;53.520;10.248;2024-02-28T01:19:48;101220.28;;;6.87;76.31
2549;BME280;1284;53.520;10.248;2024-02-28T01:22:14;101229.28;;;6.74;77.59
2549;BME280;1284;53.520;10.248;2024-02-28T01:24:39;101218.25;;;6.59;79.37
2549;BME280;1284;53.520;10.248;2024-02-28T01:27:10;101217.94;;;6.60;78.96
2549;BME280;1284;53.520;10.248;2024-02-28T01:29:36;101224.41;;;6.85;77.40
2549;BME280;1284;53.520;10.248;2024-02-28T01:32:01;101218.41;;;6.96;76.27
2549;BME280;1284;53.520;10.248;2024-02-28T01:34:27;101220.16;;;6.92;76.90
2549;BME280;1284;53.520;10.248;2024-02-28T01:36:52;101219.50;;;6.95;76.96
2549;BME280;1284;53.520;10.248;2024-02-28T01:39:17;101217.78;;;6.82;77.10
2549;BME280;1284;53.520;10.248;2024-02-28T01:41:51;101209.47;;;6.75;76.83
2549;BME280;1284;53.520;10.248;2024-02-28T01:44:16;101219.84;;;6.60;78.44
2549;BME280;1284;53.520;10.248;2024-02-28T01:46:42;101207.88;;;6.74;78.80
2549;BME280;1284;53.520;10.248;2024-02-28T01:49:07;101201.88;;;6.86;77.75
2549;BME280;1284;53.520;10.248;2024-02-28T01:51:33;101202.97;;;6.93;76.63
2549;BME280;1284;53.520;10.248;2024-02-28T01:53:59;101201.09;;;6.94;76.50
2549;BME280;1284;53.520;10.248;2024-02-28T01:56:25;101206.28;;;6.90;76.73
2549;BME280;1284;53.520;10.248;2024-02-28T01:58:52;101199.81;;;6.91;75.93
2549;BME280;1284;53.520;10.248;2024-02-28T02:01:18;101205.66;;;6.93;75.37
2549;BME280;1284;53.520;10.248;2024-02-28T02:03:49;101202.19;;;6.76;76.49
2549;BME280;1284;53.520;10.248;2024-02-28T02:06:14;101199.84;;;6.66;76.77
2549;BME280;1284;53.520;10.248;2024-02-28T02:08:40;101204.72;;;6.72;76.53
2549;BME280;1284;53.520;10.248;2024-02-28T02:11:06;101200.94;;;6.73;76.50
2549;BME280;1284;53.520;10.248;2024-02-28T02:13:32;101185.34;;;6.58;76.43
2549;BME280;1284;53.520;10.248;2024-02-28T02:15:58;101199.06;;;6.48;77.50
2549;BME280;1284;53.520;10.248;2024-02-28T02:18:23;101196.53;;;6.60;77.20
2549;BME280;1284;53.520;10.248;2024-02-28T02:21:02;101209.91;;;6.60;77.46
2549;BME280;1284;53.520;10.248;2024-02-28T02:23:30;101208.16;;;6.47;77.66
2549;BME280;1284;53.520;10.248;2024-02-28T02:25:55;101204.41;;;6.65;76.40
2549;BME280;1284;53.520;10.248;2024-02-28T02:28:22;101208.50;;;6.63;77.52
2549;BME280;1284;53.520;10.248;2024-02-28T02:30:48;101198.41;;;6.68;77.14
2549;BME280;1284;53.520;10.248;2024-02-28T02:33:13;101207.72;;;6.71;76.46
2549;BME280;1284;53.520;10.248;2024-02-28T02:35:39;101216.53;;;6.54;77.90
2549;BME280;1284;53.520;10.248;2024-02-28T02:38:05;101212.91;;;6.50;77.37
2549;BME280;1284;53.520;10.248;2024-02-28T02:40:30;101214.44;;;6.34;78.56
2549;BME280;1284;53.520;10.248;2024-02-28T02:42:56;101213.50;;;6.30;79.54
2549;BME280;1284;53.520;10.248;2024-02-28T02:45:21;101217.63;;;6.53;78.94
2549;BME280;1284;53.520;10.248;2024-02-28T02:47:46;101229.75;;;6.68;77.54
2549;BME280;1284;53.520;10.248;2024-02-28T02:50:12;101228.31;;;6.53;77.75
2549;BME280;1284;53.520;10.248;2024-02-28T02:52:38;101231.63;;;6.50;77.97
2549;BME280;1284;53.520;10.248;2024-02-28T02:55:03;101227.22;;;6.63;76.99
2549;BME280;1284;53.520;10.248;2024-02-28T02:57:33;101225.63;;;6.53;76.94
2549;BME280;1284;53.520;10.248;2024-02-28T02:59:58;101225.19;;;6.60;77.00
2549;BME280;1284;53.520;10.248;2024-02-28T03:02:24;101228.50;;;6.65;76.34
2549;BME280;1284;53.520;10.248;2024-02-28T03:04:49;101233.81;;;6.57;77.47
2549;BME280;1284;53.520;10.248;2024-02-28T03:07:15;101236.31;;;6.45;77.93
2549;BME280;1284;53.520;10.248;2024-02-28T03:09:41;101224.22;;;6.56;77.98
2549;BME280;1284;53.520;10.248;2024-02-28T03:12:06;101222.34;;;6.56;77.80
2549;BME280;1284;53.520;10.248;2024-02-28T03:14:32;101216.06;;;6.52;77.23
2549;BME280;1284;53.520;10.248;2024-02-28T03:16:58;101227.06;;;6.59;77.15
2549;BME280;1284;53.520;10.248;2024-02-28T03:19:23;101229.41;;;6.61;77.25
2549;BME280;1284;53.520;10.248;2024-02-28T03:21:49;101230.38;;;6.56;77.28
2549;BME280;1284;53.520;10.248;2024-02-28T03:24:14;101231.47;;;6.55;77.88
2549;BME280;1284;53.520;10.248;2024-02-28T03:26:40;101226.41;;;6.45;77.62
2549;BME280;1284;53.520;10.248;2024-02-28T03:29:05;101235.69;;;6.39;78.30
2549;BME280;1284;53.520;10.248;2024-02-28T03:31:30;101239.94;;;6.49;78.35
2549;BME280;1284;53.520;10.248;2024-02-28T03:33:56;101235.56;;;6.61;77.16
2549;BME280;1284;53.520;10.248;2024-02-28T03:36:21;101229.56;;;6.64;76.70
2549;BME280;1284;53.520;10.248;2024-02-28T03:38:47;101234.59;;;6.49;77.28
2549;BME280;1284;53.520;10.248;2024-02-28T03:41:12;101239.78;;;6.45;78.25
2549;BME280;1284;53.520;10.248;2024-02-28T03:43:38;101232.41;;;6.42;78.60
2549;BME280;1284;53.520;10.248;2024-02-28T03:46:03;101239.78;;;6.45;78.61
2549;BME280;1284;53.520;10.248;2024-02-28T03:48:28;101231.94;;;6.57;77.97
2549;BME280;1284;53.520;10.248;2024-02-28T03:50:54;101238.53;;;6.51;78.49
2549;BME280;1284;53.520;10.248;2024-02-28T03:53:19;101231.47;;;6.55;78.41
2549;BME280;1284;53.520;10.248;2024-02-28T03:55:45;101239.03;;;6.62;77.50
2549;BME280;1284;53.520;10.248;2024-02-28T03:58:11;101238.72;;;6.63;77.91
2549;BME280;1284;53.520;10.248;2024-02-28T04:00:37;101240.75;;;6.49;78.58
2549;BME280;1284;53.520;10.248;2024-02-28T04:03:04;101235.06;;;6.51;78.44
2549;BME280;1284;53.520;10.248;2024-02-28T04:05:29;101242.63;;;6.49;78.62
2549;BME280;1284;53.520;10.248;2024-02-28T04:07:55;101235.88;;;6.51;78.81
2549;BME280;1284;53.520;10.248;2024-02-28T04:10:21;101240.75;;;6.58;78.45
2549;BME280;1284;53.520;10.248;2024-02-28T04:12:46;101233.53;;;6.67;77.78
2549;BME280;1284;53.520;10.248;2024-02-28T04:15:12;101232.09;;;6.78;76.41
2549;BME280;1284;53.520;10.248;2024-02-28T04:17:39;101225.94;;;6.60;78.09
2549;BME280;1284;53.520;10.248;2024-02-28T04:20:13;101221.41;;;6.69;77.45
2549;BME280;1284;53.520;10.248;2024-02-28T04:22:39;101223.75;;;6.71;77.14
2549;BME280;1284;53.520;10.248;2024-02-28T04:25:05;101215.56;;;6.76;77.51
2549;BME280;1284;53.520;10.248;2024-02-28T04:27:32;101208.81;;;6.78;76.79
2549;BME280;1284;53.520;10.248;2024-02-28T04:29:58;101221.88;;;6.71;77.49
2549;BME280;1284;53.520;10.248;2024-02-28T04:32:23;101214.16;;;6.70;78.18
2549;BME280;1284;53.520;10.248;2024-02-28T04:34:49;101217.78;;;6.82;76.40
2549;BME280;1284;53.520;10.248;2024-02-28T04:37:14;101209.13;;;6.85;76.29
2549;BME280;1284;53.520;10.248;2024-02-28T04:39:40;101224.09;;;6.69;76.82
2549;BME280;1284;53.520;10.248;2024-02-28T04:42:05;101226.13;;;6.64;76.85
2549;BME280;1284;53.520;10.248;2024-02-28T04:44:31;101224.09;;;6.69;76.60
2549;BME280;1284;53.520;10.248;2024-02-28T04:46:56;101229.91;;;6.63;77.63
2549;BME280;1284;53.520;10.248;2024-02-28T04:49:22;101219.34;;;6.66;77.63
2549;BME280;1284;53.520;10.248;2024-02-28T04:51:48;101226.28;;;6.67;77.00
2549;BME280;1284;53.520;10.248;2024-02-28T04:54:13;101231.97;;;6.66;77.92
2549;BME280;1284;53.520;10.248;2024-02-28T04:56:42;101231.78;;;6.62;77.89
2549;BME280;1284;53.520;10.248;2024-02-28T04:59:09;101239.97;;;6.74;77.53
2549;BME280;1284;53.520;10.248;2024-02-28T05:01:36;101243.91;;;6.68;77.63
2549;BME280;1284;53.520;10.248;2024-02-28T05:04:07;101237.44;;;6.61;77.92
2549;BME280;1284;53.520;10.248;2024-02-28T05:06:33;101244.19;;;6.58;78.17
2549;BME280;1284;53.520;10.248;2024-02-28T05:08:59;101241.09;;;6.56;77.92
2549;BME280;1284;53.520;10.248;2024-02-28T05:11:25;101245.81;;;6.68;77.87
2549;BME280;1284;53.520;10.248;2024-02-28T05:13:50;101246.88;;;6.50;77.97
2549;BME280;1284;53.520;10.248;2024-02-28T05:16:16;101238.41;;;6.56;78.61
2549;BME280;1284;53.520;10.248;2024-02-28T05:18:44;101236.53;;;6.65;77.72
2549;BME280;1284;53.520;10.248;2024-02-28T05:21:10;101235.56;;;6.61;77.97
2549;BME280;1284;53.520;10.248;2024-02-28T05:23:35;101244.88;;;6.64;77.36
2549;BME280;1284;53.520;10.248;2024-02-28T05:26:02;101242.81;;;6.61;77.50
2549;BME280;1284;53.520;10.248;2024-02-28T05:28:33;101243.28;;;6.54;78.77
2549;BME280;1284;53.520;10.248;2024-02-28T05:31:02;101249.09;;;6.56;78.92
2549;BME280;1284;53.520;10.248;2024-02-28T05:33:35;101242.47;;;6.45;79.44
2549;BME280;1284;53.520;10.248;2024-02-28T05:36:00;101237.13;;;6.36;79.74
2549;BME280;1284;53.520;10.248;2024-02-28T05:38:26;101246.25;;;6.44;79.10
2549;BME280;1284;53.520;10.248;2024-02-28T05:40:51;101255.34;;;6.43;79.59
2549;BME280;1284;53.520;10.248;2024-02-28T05:43:17;101258.03;;;6.43;79.88
2549;BME280;1284;53.520;10.248;2024-02-28T05:45:42;101255.50;;;6.38;80.35
2549;BME280;1284;53.520;10.248;2024-02-28T05:48:08;101258.50;;;6.36;80.06
2549;BME280;1284;53.520;10.248;2024-02-28T05:50:33;101257.84;;;6.31;80.14
2549;BME280;1284;53.520;10.248;2024-02-28T05:52:59;101262.06;;;6.23;80.81
2549;BME280;1284;53.520;10.248;2024-02-28T05:55:24;101256.25;;;6.21;81.05
2549;BME280;1284;53.520;10.248;2024-02-28T05:57:51;101269.94;;;6.20;81.08
2549;BME280;1284;53.520;10.248;2024-02-28T06:00:17;101254.69;;;6.20;80.98
2549;BME280;1284;53.520;10.248;2024-02-28T06:02:42;101262.84;;;6.15;80.98
2549;BME280;1284;53.520;10.248;2024-02-28T06:05:08;101262.88;;;6.24;80.70
2549;BME280;1284;53.520;10.248;2024-02-28T06:07:33;101267.25;;;6.20;80.75
2549;BME280;1284;53.520;10.248;2024-02-28T06:09:59;101269.94;;;6.20;81.11
2549;BME280;1284;53.520;10.248;2024-02-28T06:12:25;101270.09;;;6.23;80.75
2549;BME280;1284;53.520;10.248;2024-02-28T06:14:50;101276.50;;;6.14;81.21
2549;BME280;1284;53.520;10.248;2024-02-28T06:17:16;101266.16;;;6.21;80.72
2549;BME280;1284;53.520;10.248;2024-02-28T06:19:41;101273.84;;;6.14;81.58
2549;BME280;1284;53.520;10.248;2024-02-28T06:22:06;101275.91;;;6.17;81.57
2549;BME280;1284;53.520;10.248;2024-02-28T06:24:35;101274.03;;;6.17;81.18
2549;BME280;1284;53.520;10.248;2024-02-28T06:27:01;101269.28;;;6.14;81.07
2549;BME280;1284;53.520;10.248;2024-02-28T06:29:27;101277.63;;;6.13;82.01
2549;BME280;1284;53.520;10.248;2024-02-28T06:31:53;101282.66;;;6.14;82.13
2549;BME280;1284;53.520;10.248;2024-02-28T06:34:18;101285.22;;;6.28;81.14
2549;BME280;1284;53.520;10.248;2024-02-28T06:36:44;101282.50;;;6.19;81.73
2549;BME280;1284;53.520;10.248;2024-02-28T06:39:09;101282.22;;;6.21;81.77
2549;BME280;1284;53.520;10.248;2024-02-28T06:41:35;101301.41;;;6.31;81.28
2549;BME280;1284;53.520;10.248;2024-02-28T06:44:00;101295.91;;;6.28;81.26
2549;BME280;1284;53.520;10.248;2024-02-28T06:46:26;101305.97;;;6.31;80.79
2549;BME280;1284;53.520;10.248;2024-02-28T06:48:51;101314.84;;;6.40;80.52
2549;BME280;1284;53.520;10.248;2024-02-28T06:51:17;101306.59;;;6.28;82.11
2549;BME280;1284;53.520;10.248;2024-02-28T06:53:43;101309.47;;;6.40;81.35
2549;BME280;1284;53.520;10.248;2024-02-28T06:56:08;101311.56;;;6.52;79.82
2549;BME280;1284;53.520;10.248;2024-02-28T06:58:34;101315.78;;;6.44;80.29
2549;BME280;1284;53.520;10.248;2024-02-28T07:00:59;101307.25;;;6.33;81.18
2549;BME280;1284;53.520;10.248;2024-02-28T07:03:25;101308.06;;;6.34;80.99
2549;BME280;1284;53.520;10.248;2024-02-28T07:05:50;101322.66;;;6.28;81.70
2549;BME280;1284;53.520;10.248;2024-02-28T07:08:17;101322.97;;;6.35;81.45
2549;BME280;1284;53.520;10.248;2024-02-28T07:10:42;101317.66;;;6.44;81.05
2549;BME280;1284;53.520;10.248;2024-02-28T07:13:09;101314.56;;;6.50;80.51
2549;BME280;1284;53.520;10.248;2024-02-28T07:15:35;101326.59;;;6.30;82.00
2549;BME280;1284;53.520;10.248;2024-02-28T07:18:01;101326.34;;;6.41;81.57
2549;BME280;1284;53.520;10.248;2024-02-28T07:20:26;101326.81;;;6.51;80.28
2549;BME280;1284;53.520;10.248;2024-02-28T07:22:52;101337.50;;;6.43;81.08
2549;BME280;1284;53.520;10.248;2024-02-28T07:25:17;101341.00;;;6.52;80.76
2549;BME280;1284;53.520;10.248;2024-02-28T07:27:43;101332.34;;;6.55;80.13
2549;BME280;1284;53.520;10.248;2024-02-28T07:30:08;101341.41;;;6.36;81.61
2549;BME280;1284;53.520;10.248;2024-02-28T07:32:34;101335.91;;;6.42;81.35
2549;BME280;1284;53.520;10.248;2024-02-28T07:35:01;101332.81;;;6.48;81.23
2549;BME280;1284;53.520;10.248;2024-02-28T07:37:26;101338.75;;;6.45;81.01
2549;BME280;1284;53.520;10.248;2024-02-28T07:39:52;101326.66;;;6.48;80.95
2549;BME280;1284;53.520;10.248;2024-02-28T07:42:17;101322.25;;;6.52;80.93
2549;BME280;1284;53.520;10.248;2024-02-28T07:44:43;101331.38;;;6.51;80.25
2549;BME280;1284;53.520;10.248;2024-02-28T07:47:08;101340.63;;;6.45;81.61
2549;BME280;1284;53.520;10.248;2024-02-28T07:49:34;101335.16;;;6.50;81.18
2549;BME280;1284;53.520;10.248;2024-02-28T07:51:59;101335.16;;;6.50;80.85
2549;BME280;1284;53.520;10.248;2024-02-28T07:54:25;101335.63;;;6.52;80.97
2549;BME280;1284;53.520;10.248;2024-02-28T07:56:50;101333.59;;;6.57;81.15
2549;BME280;1284;53.520;10.248;2024-02-28T07:59:16;101334.56;;;6.61;81.86
2549;BME280;1284;53.520;10.248;2024-02-28T08:01:41;101334.44;;;6.75;80.68
2549;BME280;1284;53.520;10.248;2024-02-28T08:04:07;101329.09;;;6.75;80.57
2549;BME280;1284;53.520;10.248;2024-02-28T08:06:32;101342.78;;;6.82;79.83
2549;BME280;1284;53.520;10.248;2024-02-28T08:08:58;101345.50;;;6.90;79.13
2549;BME280;1284;53.520;10.248;2024-02-28T08:11:24;101332.25;;;6.85;79.74
2549;BME280;1284;53.520;10.248;2024-02-28T08:13:50;101330.53;;;6.81;80.59
2549;BME280;1284;53.520;10.248;2024-02-28T08:16:16;101330.34;;;6.77;79.62
2549;BME280;1284;53.520;10.248;2024-02-28T08:18:42;101339.94;;;6.78;80.54
2549;BME280;1284;53.520;10.248;2024-02-28T08:21:08;101348.13;;;6.82;80.90
2549;BME280;1284;53.520;10.248;2024-02-28T08:23:34;101344.09;;;6.93;81.30
2549;BME280;1284;53.520;10.248;2024-02-28T08:25:59;101350.69;;;7.12;80.74
2549;BME280;1284;53.520;10.248;2024-02-28T08:28:25;101349.16;;;7.20;80.21
2549;BME280;1284;53.520;10.248;2024-02-28T08:30:50;101352.28;;;7.30;80.00
2549;BME280;1284;53.520;10.248;2024-02-28T08:33:16;101346.31;;;7.42;78.77
2549;BME280;1284;53.520;10.248;2024-02-28T08:35:41;101349.78;;;7.43;78.49
2549;BME280;1284;53.520;10.248;2024-02-28T08:38:08;101370.25;;;7.39;78.76
2549;BME280;1284;53.520;10.248;2024-02-28T08:40:33;101367.75;;;7.34;79.40
2549;BME280;1284;53.520;10.248;2024-02-28T08:42:59;101363.00;;;7.48;77.81
2549;BME280;1284;53.520;10.248;2024-02-28T08:45:24;101362.69;;;7.49;78.21
2549;BME280;1284;53.520;10.248;2024-02-28T08:47:50;101366.16;;;7.32;78.98
2549;BME280;1284;53.520;10.248;2024-02-28T08:50:15;101365.22;;;7.28;79.64
2549;BME280;1284;53.520;10.248;2024-02-28T08:52:41;101364.13;;;7.47;79.46
2549;BME280;1284;53.520;10.248;2024-02-28T08:55:06;101359.38;;;7.44;79.07
2549;BME280;1284;53.520;10.248;2024-02-28T08:57:32;101359.06;;;7.54;79.47
2549;BME280;1284;53.520;10.248;2024-02-28T08:59:57;101363.78;;;7.74;78.97
2549;BME280;1284;53.520;10.248;2024-02-28T09:02:23;101364.22;;;7.84;78.95
2549;BME280;1284;53.520;10.248;2024-02-28T09:04:48;101363.88;;;7.94;78.72
2549;BME280;1284;53.520;10.248;2024-02-28T09:07:18;101363.66;;;8.25;78.36
2549;BME280;1284;53.520;10.248;2024-02-28T09:09:46;101367.06;;;8.43;77.96
2549;BME280;1284;53.520;10.248;2024-02-28T09:12:12;101362.31;;;8.48;77.23
2549;BME280;1284;53.520;10.248;2024-02-28T09:14:38;101363.81;;;8.66;76.23
2549;BME280;1284;53.520;10.248;2024-02-28T09:17:04;101369.75;;;8.80;75.50
2549;BME280;1284;53.520;10.248;2024-02-28T09:19:32;101370.00;;;8.87;75.39
2549;BME280;1284;53.520;10.248;2024-02-28T09:21:58;101375.72;;;9.06;74.55
2549;BME280;1284;53.520;10.248;2024-02-28T09:24:24;101369.50;;;9.15;73.77
2549;BME280;1284;53.520;10.248;2024-02-28T09:26:50;101371.88;;;9.37;73.19
2549;BME280;1284;53.520;10.248;2024-02-28T09:29:15;101374.50;;;9.45;73.29
2549;BME280;1284;53.520;10.248;2024-02-28T09:31:41;101373.50;;;9.50;73.20
2549;BME280;1284;53.520;10.248;2024-02-28T09:34:06;101378.94;;;9.62;71.82
2549;BME280;1284;53.520;10.248;2024-02-28T09:36:41;101381.91;;;9.48;73.19
2549;BME280;1284;53.520;10.248;2024-02-28T09:39:07;101384.00;;;9.63;72.62
2549;BME280;1284;53.520;10.248;2024-02-28T09:41:33;101386.97;;;9.82;73.01
2549;BME280;1284;53.520;10.248;2024-02-28T09:43:59;101386.22;;;9.94;71.46
2549;BME280;1284;53.520;10.248;2024-02-28T09:46:25;101386.28;;;10.06;70.58
2549;BME280;1284;53.520;10.248;2024-02-28T09:48:52;101388.28;;;10.09;70.53
2549;BME280;1284;53.520;10.248;2024-02-28T09:51:21;101401.00;;;9.88;71.70
2549;BME280;1284;53.520;10.248;2024-02-28T09:53:47;101393.09;;;10.03;71.28
2549;BME280;1284;53.520;10.248;2024-02-28T09:56:12;101384.44;;;9.98;72.11
2549;BME280;1284;53.520;10.248;2024-02-28T09:58:38;101387.50;;;10.09;71.60
2549;BME280;1284;53.520;10.248;2024-02-28T10:01:06;101385.56;;;9.97;71.33
2549;BME280;1284;53.520;10.248;2024-02-28T10:03:35;101380.91;;;10.18;69.93
2549;BME280;1284;53.520;10.248;2024-02-28T10:06:02;101376.09;;;10.12;70.15
2549;BME280;1284;53.520;10.248;2024-02-28T10:08:27;101375.75;;;10.13;70.50
2549;BME280;1284;53.520;10.248;2024-02-28T10:10:54;101366.44;;;10.11;71.00
2549;BME280;1284;53.520;10.248;2024-02-28T10:13:21;101366.44;;;10.11;71.00
2549;BME280;1284;53.520;10.248;2024-02-28T10:15:50;101373.88;;;10.38;69.92
2549;BME280;1284;53.520;10.248;2024-02-28T10:18:15;101388.94;;;10.39;69.89
2549;BME280;1284;53.520;10.248;2024-02-28T10:20:41;101388.38;;;10.45;69.20
2549;BME280;1284;53.520;10.248;2024-02-28T10:23:07;101391.66;;;10.51;68.92
2549;BME280;1284;53.520;10.248;2024-02-28T10:25:46;101387.72;;;10.60;67.43
2549;BME280;1284;53.520;10.248;2024-02-28T10:28:15;101391.84;;;10.46;69.26
2549;BME280;1284;53.520;10.248;2024-02-28T10:30:41;101399.03;;;10.42;69.31
2549;BME280;1284;53.520;10.248;2024-02-28T10:33:15;101401.97;;;10.49;69.46
2549;BME280;1284;53.520;10.248;2024-02-28T10:35:41;101406.56;;;10.60;67.79
2549;BME280;1284;53.520;10.248;2024-02-28T10:38:11;101396.78;;;10.44;69.61
2549;BME280;1284;53.520;10.248;2024-02-28T10:40:37;101393.09;;;10.48;69.65
2549;BME280;1284;53.520;10.248;2024-02-28T10:43:03;101405.19;;;10.42;69.54
2549;BME280;1284;53.520;10.248;2024-02-28T10:45:35;101397.53;;;10.20;70.65
2549;BME280;1284;53.520;10.248;2024-02-28T10:48:02;101413.22;;;10.18;71.34
2549;BME280;1284;53.520;10.248;2024-02-28T10:50:29;101406.50;;;10.12;72.13
2549;BME280;1284;53.520;10.248;2024-02-28T10:53:00;101415.38;;;10.25;70.64
2549;BME280;1284;53.520;10.248;2024-02-28T10:55:27;101415.38;;;10.25;69.75
2549;BME280;1284;53.520;10.248;2024-02-28T10:58:02;101418.59;;;10.18;71.11
2549;BME280;1284;53.520;10.248;2024-02-28T11:00:28;101422.00;;;10.27;71.40
2549;BME280;1284;53.520;10.248;2024-02-28T11:02:56;101412.28;;;10.47;71.91
2549;BME280;1284;53.520;10.248;2024-02-28T11:05:21;101403.53;;;10.50;72.04
2549;BME280;1284;53.520;10.248;2024-02-28T11:07:51;101405.44;;;10.61;71.38
2549;BME280;1284;53.520;10.248;2024-02-28T11:10:17;101406.78;;;10.55;71.17
2549;BME280;1284;53.520;10.248;2024-02-28T11:12:43;101402.09;;;10.64;70.98
2549;BME280;1284;53.520;10.248;2024-02-28T11:15:16;101398.94;;;10.86;70.84
2549;BME280;1284;53.520;10.248;2024-02-28T11:17:42;101398.47;;;10.97;69.71
2549;BME280;1284;53.520;10.248;2024-02-28T11:20:11;101408.59;;;10.87;69.55
2549;BME280;1284;53.520;10.248;2024-02-28T11:22:39;101400.28;;;10.93;69.03
2549;BME280;1284;53.520;10.248;2024-02-28T11:25:05;101400.47;;;11.00;68.29
2549;BME280;1284;53.520;10.248;2024-02-28T11:27:31;101403.75;;;10.93;68.11
2549;BME280;1284;53.520;10.248;2024-02-28T11:29:57;101401.25;;;11.12;68.38
2549;BME280;1284;53.520;10.248;2024-02-28T11:32:24;101397.34;;;11.10;68.54
2549;BME280;1284;53.520;10.248;2024-02-28T11:34:50;101398.88;;;11.23;67.68
2549;BME280;1284;53.520;10.248;2024-02-28T11:37:17;101402.16;;;11.28;65.74
2549;BME280;1284;53.520;10.248;2024-02-28T11:39:47;101403.63;;;11.14;67.45
2549;BME280;1284;53.520;10.248;2024-02-28T11:42:15;101411.50;;;10.95;69.64
2549;BME280;1284;53.520;10.248;2024-02-28T11:44:41;101407.47;;;11.01;70.10
2549;BME280;1284;53.520;10.248;2024-02-28T11:47:10;101401.38;;;11.04;69.33
2549;BME280;1284;53.520;10.248;2024-02-28T11:49:38;101397.56;;;11.05;68.02
2549;BME280;1284;53.520;10.248;2024-02-28T11:52:04;101402.19;;;11.04;68.48
2549;BME280;1284;53.520;10.248;2024-02-28T11:54:30;101403.22;;;10.87;69.43
2549;BME280;1284;53.520;10.248;2024-02-28T11:56:55;101397.47;;;11.01;69.60
2549;BME280;1284;53.520;10.248;2024-02-28T11:59:21;101397.47;;;11.01;69.60
2549;BME280;1284;53.520;10.248;2024-02-28T12:01:46;101398.84;;;11.35;66.66
2549;BME280;1284;53.520;10.248;2024-02-28T12:04:12;101394.28;;;11.23;67.79
2549;BME280;1284;53.520;10.248;2024-02-28T12:06:39;101401.13;;;11.21;69.02
2549;BME280;1284;53.520;10.248;2024-02-28T12:09:07;101394.25;;;11.35;68.03
2549;BME280;1284;53.520;10.248;2024-02-28T12:11:36;101388.34;;;11.18;68.53
2549;BME280;1284;53.520;10.248;2024-02-28T12:14:06;101394.06;;;11.28;68.27
2549;BME280;1284;53.520;10.248;2024-02-28T12:16:36;101396.69;;;11.40;68.65
2549;BME280;1284;53.520;10.248;2024-02-28T12:19:04;101390.03;;;11.50;67.67
2549;BME280;1284;53.520;10.248;2024-02-28T12:21:33;101393.91;;;11.37;68.45
2549;BME280;1284;53.520;10.248;2024-02-28T12:23:58;101389.22;;;11.34;68.90
2549;BME280;1284;53.520;10.248;2024-02-28T12:26:24;101384.72;;;11.38;67.83
2549;BME280;1284;53.520;10.248;2024-02-28T12:28:49;101388.09;;;11.23;69.28
2549;BME280;1284;53.520;10.248;2024-02-28T12:31:15;101382.22;;;11.33;68.68
2549;BME280;1284;53.520;10.248;2024-02-28T12:33:40;101387.19;;;11.31;69.26
2549;BME280;1284;53.520;10.248;2024-02-28T12:36:07;101383.72;;;11.30;68.12
2549;BME280;1284;53.520;10.248;2024-02-28T12:38:33;101380.06;;;11.11;69.03
2549;BME280;1284;53.520;10.248;2024-02-28T12:40:58;101384.09;;;11.17;70.88
2549;BME280;1284;53.520;10.248;2024-02-28T12:43:24;101375.06;;;11.25;70.02
2549;BME280;1284;53.520;10.248;2024-02-28T12:45:50;101369.28;;;11.38;67.31
2549;BME280;1284;53.520;10.248;2024-02-28T12:48:16;101364.53;;;11.20;69.23
2549;BME280;1284;53.520;10.248;2024-02-28T12:50:41;101363.38;;;11.21;68.95
2549;BME280;1284;53.520;10.248;2024-02-28T12:53:07;101370.69;;;11.32;69.15
2549;BME280;1284;53.520;10.248;2024-02-28T12:55:32;101353.72;;;11.32;68.89
2549;BME280;1284;53.520;10.248;2024-02-28T12:57:58;101357.66;;;11.22;70.12
2549;BME280;1284;53.520;10.248;2024-02-28T13:00:25;101359.00;;;11.28;71.10
2549;BME280;1284;53.520;10.248;2024-02-28T13:02:51;101359.31;;;11.27;70.49